sensor_id;sensor_type;location;lat;lon;timestamp;P1;durP1;ratioP1;P2;durP2;ratioP2
64936;SDS011;51452;47.698;19.050;2022-09-24T00:00:18;4.95;;;2.92;;
64936;SDS011;51452;47.698;19.050;2022-09-24T00:02:43;4.87;;;3.13;;
64936;SDS011;51452;47.698;19.050;2022-09-24T00:05:09;8.63;;;3.37;;
64936;SDS011;51452;47.698;19.050;2022-09-24T00:07:34;6.63;;;3.73;;
64936;SDS011;51452;47.698;19.050;2022-09-24T00:09:59;5.27;;;3.40;;
64936;SDS011;51452;47.698;19.050;2022-09-24T00:12:25;5.20;;;3.27;;
64936;SDS011;51452;47.698;19.050;2022-09-24T00:14:51;5.40;;;2.73;;
64936;SDS011;51452;47.698;19.050;2022-09-24T00:17:17;5.27;;;2.80;;
64936;SDS011;51452;47.698;19.050;2022-09-24T00:19:42;4.27;;;2.30;;
64936;SDS011;51452;47.698;19.050;2022-09-24T00:22:08;3.50;;;2.37;;
64936;SDS011;51452;47.698;19.050;2022-09-24T00:24:33;5.17;;;2.73;;
64936;SDS011;51452;47.698;19.050;2022-09-24T00:27:17;3.33;;;2.23;;
64936;SDS011;51452;47.698;19.050;2022-09-24T00:29:43;5.83;;;2.17;;
64936;SDS011;51452;47.698;19.050;2022-09-24T00:32:08;4.50;;;2.00;;
64936;SDS011;51452;47.698;19.050;2022-09-24T00:34:34;2.67;;;1.80;;
64936;SDS011;51452;47.698;19.050;2022-09-24T00:37:00;2.90;;;1.90;;
64936;SDS011;51452;47.698;19.050;2022-09-24T00:39:25;2.87;;;1.83;;
64936;SDS011;51452;47.698;19.050;2022-09-24T00:41:51;2.87;;;2.03;;
64936;SDS011;51452;47.698;19.050;2022-09-24T00:47:04;2.50;;;1.80;;
64936;SDS011;51452;47.698;19.050;2022-09-24T00:49:29;4.07;;;1.93;;
64936;SDS011;51452;47.698;19.050;2022-09-24T00:51:55;2.73;;;1.90;;
64936;SDS011;51452;47.698;19.050;2022-09-24T00:54:21;2.40;;;1.70;;
64936;SDS011;51452;47.698;19.050;2022-09-24T00:56:50;2.37;;;1.70;;
64936;SDS011;51452;47.698;19.050;2022-09-24T00:59:18;2.77;;;1.77;;
64936;SDS011;51452;47.698;19.050;2022-09-24T01:01:47;2.77;;;1.70;;
64936;SDS011;51452;47.698;19.050;2022-09-24T01:04:13;2.97;;;1.97;;
64936;SDS011;51452;47.698;19.050;2022-09-24T01:06:41;2.70;;;1.80;;
64936;SDS011;51452;47.698;19.050;2022-09-24T01:09:07;4.63;;;1.90;;
64936;SDS011;51452;47.698;19.050;2022-09-24T01:14:22;2.20;;;1.63;;
64936;SDS011;51452;47.698;19.050;2022-09-24T01:17:27;2.17;;;1.43;;
64936;SDS011;51452;47.698;19.050;2022-09-24T01:22:53;3.13;;;1.87;;
64936;SDS011;51452;47.698;19.050;2022-09-24T01:28:47;4.30;;;2.00;;
64936;SDS011;51452;47.698;19.050;2022-09-24T01:34:12;3.90;;;2.57;;
64936;SDS011;51452;47.698;19.050;2022-09-24T01:36:43;4.17;;;2.40;;
64936;SDS011;51452;47.698;19.050;2022-09-24T01:39:10;3.40;;;2.33;;
64936;SDS011;51452;47.698;19.050;2022-09-24T01:41:38;2.93;;;2.23;;
64936;SDS011;51452;47.698;19.050;2022-09-24T01:44:07;3.27;;;2.30;;
64936;SDS011;51452;47.698;19.050;2022-09-24T01:46:37;3.60;;;2.40;;
64936;SDS011;51452;47.698;19.050;2022-09-24T01:49:04;4.90;;;2.47;;
64936;SDS011;51452;47.698;19.050;2022-09-24T01:51:41;3.60;;;2.23;;
64936;SDS011;51452;47.698;19.050;2022-09-24T01:54:17;5.27;;;2.97;;
64936;SDS011;51452;47.698;19.050;2022-09-24T01:56:48;4.07;;;2.63;;
64936;SDS011;51452;47.698;19.050;2022-09-24T01:59:31;3.40;;;2.10;;
64936;SDS011;51452;47.698;19.050;2022-09-24T02:02:03;2.53;;;1.90;;
64936;SDS011;51452;47.698;19.050;2022-09-24T02:04:34;3.87;;;1.70;;
64936;SDS011;51452;47.698;19.050;2022-09-24T02:07:04;1.70;;;1.37;;
64936;SDS011;51452;47.698;19.050;2022-09-24T02:09:38;2.57;;;1.20;;
64936;SDS011;51452;47.698;19.050;2022-09-24T02:14:43;3.73;;;1.30;;
64936;SDS011;51452;47.698;19.050;2022-09-24T02:17:13;2.20;;;1.50;;
64936;SDS011;51452;47.698;19.050;2022-09-24T02:19:39;2.70;;;1.70;;
64936;SDS011;51452;47.698;19.050;2022-09-24T02:22:06;3.30;;;1.80;;
64936;SDS011;51452;47.698;19.050;2022-09-24T02:27:14;2.83;;;1.60;;
64936;SDS011;51452;47.698;19.050;2022-09-24T02:29:40;3.43;;;1.70;;
64936;SDS011;51452;47.698;19.050;2022-09-24T02:32:06;2.33;;;1.77;;
64936;SDS011;51452;47.698;19.050;2022-09-24T02:34:35;2.40;;;1.40;;
64936;SDS011;51452;47.698;19.050;2022-09-24T02:37:05;2.50;;;1.60;;
64936;SDS011;51452;47.698;19.050;2022-09-24T02:39:31;1.87;;;1.40;;
64936;SDS011;51452;47.698;19.050;2022-09-24T02:41:56;1.90;;;1.20;;
64936;SDS011;51452;47.698;19.050;2022-09-24T02:44:23;2.37;;;1.60;;
64936;SDS011;51452;47.698;19.050;2022-09-24T02:46:48;3.37;;;1.73;;
64936;SDS011;51452;47.698;19.050;2022-09-24T02:49:14;3.63;;;1.77;;
64936;SDS011;51452;47.698;19.050;2022-09-24T02:51:40;3.20;;;1.80;;
64936;SDS011;51452;47.698;19.050;2022-09-24T02:54:06;4.33;;;1.53;;
64936;SDS011;51452;47.698;19.050;2022-09-24T02:56:32;2.90;;;1.97;;
64936;SDS011;51452;47.698;19.050;2022-09-24T02:58:58;2.67;;;1.93;;
64936;SDS011;51452;47.698;19.050;2022-09-24T03:01:26;4.10;;;1.73;;
64936;SDS011;51452;47.698;19.050;2022-09-24T03:03:52;3.23;;;1.80;;
64936;SDS011;51452;47.698;19.050;2022-09-24T03:06:17;2.40;;;1.50;;
64936;SDS011;51452;47.698;19.050;2022-09-24T03:08:43;2.17;;;1.63;;
64936;SDS011;51452;47.698;19.050;2022-09-24T03:11:09;2.70;;;1.57;;
64936;SDS011;51452;47.698;19.050;2022-09-24T03:13:35;2.40;;;1.50;;
64936;SDS011;51452;47.698;19.050;2022-09-24T03:16:02;5.60;;;1.80;;
64936;SDS011;51452;47.698;19.050;2022-09-24T03:18:28;2.77;;;1.60;;
64936;SDS011;51452;47.698;19.050;2022-09-24T03:20:57;2.23;;;1.70;;
64936;SDS011;51452;47.698;19.050;2022-09-24T03:23:28;2.22;;;1.70;;
64936;SDS011;51452;47.698;19.050;2022-09-24T03:25:53;2.97;;;2.00;;
64936;SDS011;51452;47.698;19.050;2022-09-24T03:28:19;4.57;;;2.07;;
64936;SDS011;51452;47.698;19.050;2022-09-24T03:30:45;3.43;;;2.10;;
64936;SDS011;51452;47.698;19.050;2022-09-24T03:38:57;2.77;;;2.00;;
64936;SDS011;51452;47.698;19.050;2022-09-24T03:41:23;3.27;;;2.00;;
64936;SDS011;51452;47.698;19.050;2022-09-24T03:43:50;3.63;;;2.10;;
64936;SDS011;51452;47.698;19.050;2022-09-24T03:46:16;7.90;;;2.20;;
64936;SDS011;51452;47.698;19.050;2022-09-24T03:48:41;2.90;;;2.10;;
64936;SDS011;51452;47.698;19.050;2022-09-24T03:53:35;2.40;;;1.47;;
64936;SDS011;51452;47.698;19.050;2022-09-24T03:56:00;3.00;;;2.17;;
64936;SDS011;51452;47.698;19.050;2022-09-24T03:58:26;3.23;;;1.97;;
64936;SDS011;51452;47.698;19.050;2022-09-24T04:00:53;2.93;;;1.90;;
64936;SDS011;51452;47.698;19.050;2022-09-24T04:03:19;4.33;;;2.40;;
64936;SDS011;51452;47.698;19.050;2022-09-24T04:05:46;4.03;;;2.20;;
64936;SDS011;51452;47.698;19.050;2022-09-24T04:08:11;4.07;;;2.90;;
64936;SDS011;51452;47.698;19.050;2022-09-24T04:10:37;4.27;;;2.27;;
64936;SDS011;51452;47.698;19.050;2022-09-24T04:13:02;6.20;;;2.10;;
64936;SDS011;51452;47.698;19.050;2022-09-24T04:15:27;3.27;;;2.00;;
64936;SDS011;51452;47.698;19.050;2022-09-24T04:17:54;2.93;;;1.83;;
64936;SDS011;51452;47.698;19.050;2022-09-24T04:20:21;3.90;;;2.00;;
64936;SDS011;51452;47.698;19.050;2022-09-24T04:22:48;2.53;;;1.73;;
64936;SDS011;51452;47.698;19.050;2022-09-24T04:25:14;2.87;;;1.90;;
64936;SDS011;51452;47.698;19.050;2022-09-24T04:27:41;3.57;;;2.00;;
64936;SDS011;51452;47.698;19.050;2022-09-24T04:30:07;3.20;;;1.90;;
64936;SDS011;51452;47.698;19.050;2022-09-24T04:32:33;3.50;;;1.70;;
64936;SDS011;51452;47.698;19.050;2022-09-24T04:34:58;4.23;;;1.97;;
64936;SDS011;51452;47.698;19.050;2022-09-24T04:37:23;2.30;;;1.47;;
64936;SDS011;51452;47.698;19.050;2022-09-24T04:39:49;6.13;;;1.70;;
64936;SDS011;51452;47.698;19.050;2022-09-24T04:42:15;7.83;;;2.20;;
64936;SDS011;51452;47.698;19.050;2022-09-24T04:44:41;3.80;;;2.20;;
64936;SDS011;51452;47.698;19.050;2022-09-24T04:47:12;3.47;;;1.90;;
64936;SDS011;51452;47.698;19.050;2022-09-24T04:49:38;3.40;;;2.00;;
64936;SDS011;51452;47.698;19.050;2022-09-24T04:52:03;5.33;;;2.60;;
64936;SDS011;51452;47.698;19.050;2022-09-24T04:54:29;3.30;;;2.10;;
64936;SDS011;51452;47.698;19.050;2022-09-24T04:56:54;3.47;;;1.90;;
64936;SDS011;51452;47.698;19.050;2022-09-24T04:59:20;2.73;;;2.10;;
64936;SDS011;51452;47.698;19.050;2022-09-24T05:01:46;2.97;;;2.13;;
64936;SDS011;51452;47.698;19.050;2022-09-24T05:04:11;4.63;;;2.30;;
64936;SDS011;51452;47.698;19.050;2022-09-24T05:06:37;4.27;;;2.43;;
64936;SDS011;51452;47.698;19.050;2022-09-24T05:09:02;4.40;;;2.43;;
64936;SDS011;51452;47.698;19.050;2022-09-24T05:11:28;4.40;;;2.53;;
64936;SDS011;51452;47.698;19.050;2022-09-24T05:13:53;6.63;;;2.50;;
64936;SDS011;51452;47.698;19.050;2022-09-24T05:16:19;3.90;;;2.47;;
64936;SDS011;51452;47.698;19.050;2022-09-24T05:18:45;3.87;;;2.20;;
64936;SDS011;51452;47.698;19.050;2022-09-24T05:21:10;3.50;;;2.30;;
64936;SDS011;51452;47.698;19.050;2022-09-24T05:23:35;3.00;;;1.77;;
64936;SDS011;51452;47.698;19.050;2022-09-24T05:26:01;3.10;;;2.03;;
64936;SDS011;51452;47.698;19.050;2022-09-24T05:28:44;4.00;;;1.77;;
64936;SDS011;51452;47.698;19.050;2022-09-24T05:31:10;5.60;;;2.70;;
64936;SDS011;51452;47.698;19.050;2022-09-24T05:33:35;4.03;;;2.20;;
64936;SDS011;51452;47.698;19.050;2022-09-24T05:36:01;4.70;;;2.70;;
64936;SDS011;51452;47.698;19.050;2022-09-24T05:38:28;4.17;;;2.73;;
64936;SDS011;51452;47.698;19.050;2022-09-24T05:40:54;4.00;;;2.50;;
64936;SDS011;51452;47.698;19.050;2022-09-24T05:43:19;5.90;;;3.47;;
64936;SDS011;51452;47.698;19.050;2022-09-24T05:45:45;5.40;;;3.30;;
64936;SDS011;51452;47.698;19.050;2022-09-24T05:48:11;5.38;;;3.05;;
64936;SDS011;51452;47.698;19.050;2022-09-24T05:50:36;5.55;;;3.13;;
64936;SDS011;51452;47.698;19.050;2022-09-24T05:53:02;4.60;;;3.13;;
64936;SDS011;51452;47.698;19.050;2022-09-24T05:55:29;4.97;;;2.63;;
64936;SDS011;51452;47.698;19.050;2022-09-24T05:57:54;4.00;;;2.80;;
64936;SDS011;51452;47.698;19.050;2022-09-24T06:00:20;4.20;;;2.72;;
64936;SDS011;51452;47.698;19.050;2022-09-24T06:02:45;4.20;;;2.65;;
64936;SDS011;51452;47.698;19.050;2022-09-24T06:05:11;3.13;;;2.20;;
64936;SDS011;51452;47.698;19.050;2022-09-24T06:07:37;3.85;;;2.50;;
64936;SDS011;51452;47.698;19.050;2022-09-24T06:10:04;6.28;;;2.67;;
64936;SDS011;51452;47.698;19.050;2022-09-24T06:12:31;4.82;;;2.35;;
64936;SDS011;51452;47.698;19.050;2022-09-24T06:14:58;5.72;;;2.30;;
64936;SDS011;51452;47.698;19.050;2022-09-24T06:17:25;3.67;;;2.05;;
64936;SDS011;51452;47.698;19.050;2022-09-24T06:19:51;4.10;;;2.20;;
64936;SDS011;51452;47.698;19.050;2022-09-24T06:22:16;5.25;;;3.15;;
64936;SDS011;51452;47.698;19.050;2022-09-24T06:24:41;3.70;;;2.40;;
64936;SDS011;51452;47.698;19.050;2022-09-24T06:27:07;3.53;;;2.55;;
64936;SDS011;51452;47.698;19.050;2022-09-24T06:29:32;4.20;;;3.05;;
64936;SDS011;51452;47.698;19.050;2022-09-24T06:31:58;5.85;;;2.92;;
64936;SDS011;51452;47.698;19.050;2022-09-24T06:34:25;3.60;;;2.40;;
64936;SDS011;51452;47.698;19.050;2022-09-24T06:36:54;4.40;;;2.22;;
64936;SDS011;51452;47.698;19.050;2022-09-24T06:39:24;3.33;;;2.13;;
64936;SDS011;51452;47.698;19.050;2022-09-24T06:41:50;4.65;;;2.00;;
64936;SDS011;51452;47.698;19.050;2022-09-24T06:44:17;3.95;;;2.17;;
64936;SDS011;51452;47.698;19.050;2022-09-24T06:46:43;4.45;;;2.17;;
64936;SDS011;51452;47.698;19.050;2022-09-24T06:49:09;4.80;;;2.83;;
64936;SDS011;51452;47.698;19.050;2022-09-24T06:51:34;7.18;;;4.15;;
64936;SDS011;51452;47.698;19.050;2022-09-24T06:54:00;6.70;;;3.50;;
64936;SDS011;51452;47.698;19.050;2022-09-24T06:56:25;7.28;;;3.55;;
64936;SDS011;51452;47.698;19.050;2022-09-24T06:58:51;6.82;;;4.03;;
64936;SDS011;51452;47.698;19.050;2022-09-24T07:01:16;6.60;;;3.53;;
64936;SDS011;51452;47.698;19.050;2022-09-24T07:03:41;4.93;;;3.10;;
64936;SDS011;51452;47.698;19.050;2022-09-24T07:06:07;11.00;;;3.53;;
64936;SDS011;51452;47.698;19.050;2022-09-24T07:08:32;4.93;;;3.30;;
64936;SDS011;51452;47.698;19.050;2022-09-24T07:10:58;5.85;;;3.13;;
64936;SDS011;51452;47.698;19.050;2022-09-24T07:13:24;6.30;;;4.25;;
64936;SDS011;51452;47.698;19.050;2022-09-24T07:15:50;9.48;;;5.05;;
64936;SDS011;51452;47.698;19.050;2022-09-24T07:18:16;16.27;;;8.55;;
64936;SDS011;51452;47.698;19.050;2022-09-24T07:20:43;12.43;;;7.93;;
64936;SDS011;51452;47.698;19.050;2022-09-24T07:23:09;15.07;;;7.22;;
64936;SDS011;51452;47.698;19.050;2022-09-24T07:25:36;15.15;;;8.60;;
64936;SDS011;51452;47.698;19.050;2022-09-24T07:28:03;14.40;;;7.40;;
64936;SDS011;51452;47.698;19.050;2022-09-24T07:30:30;12.50;;;8.43;;
64936;SDS011;51452;47.698;19.050;2022-09-24T07:32:56;16.52;;;10.05;;
64936;SDS011;51452;47.698;19.050;2022-09-24T07:35:22;9.75;;;6.45;;
64936;SDS011;51452;47.698;19.050;2022-09-24T07:37:54;18.83;;;10.52;;
64936;SDS011;51452;47.698;19.050;2022-09-24T07:40:21;15.18;;;10.18;;
64936;SDS011;51452;47.698;19.050;2022-09-24T07:42:47;17.58;;;9.88;;
64936;SDS011;51452;47.698;19.050;2022-09-24T07:45:13;16.70;;;9.40;;
64936;SDS011;51452;47.698;19.050;2022-09-24T07:47:39;16.42;;;9.70;;
64936;SDS011;51452;47.698;19.050;2022-09-24T07:50:05;16.40;;;10.32;;
64936;SDS011;51452;47.698;19.050;2022-09-24T07:52:30;16.88;;;10.15;;
64936;SDS011;51452;47.698;19.050;2022-09-24T07:54:55;15.35;;;10.50;;
64936;SDS011;51452;47.698;19.050;2022-09-24T07:57:21;16.35;;;10.45;;
64936;SDS011;51452;47.698;19.050;2022-09-24T07:59:46;14.77;;;9.93;;
64936;SDS011;51452;47.698;19.050;2022-09-24T08:02:13;17.20;;;10.68;;
64936;SDS011;51452;47.698;19.050;2022-09-24T08:04:40;17.17;;;11.00;;
64936;SDS011;51452;47.698;19.050;2022-09-24T08:07:06;17.30;;;10.18;;
64936;SDS011;51452;47.698;19.050;2022-09-24T08:09:31;18.70;;;10.85;;
64936;SDS011;51452;47.698;19.050;2022-09-24T08:11:57;16.05;;;10.27;;
64936;SDS011;51452;47.698;19.050;2022-09-24T08:14:22;16.15;;;10.32;;
64936;SDS011;51452;47.698;19.050;2022-09-24T08:16:48;17.08;;;10.52;;
64936;SDS011;51452;47.698;19.050;2022-09-24T08:19:13;17.50;;;10.38;;
64936;SDS011;51452;47.698;19.050;2022-09-24T08:21:40;14.73;;;9.93;;
64936;SDS011;51452;47.698;19.050;2022-09-24T08:24:06;15.25;;;10.00;;
64936;SDS011;51452;47.698;19.050;2022-09-24T08:26:31;15.52;;;9.80;;
64936;SDS011;51452;47.698;19.050;2022-09-24T08:28:57;16.05;;;9.40;;
64936;SDS011;51452;47.698;19.050;2022-09-24T08:31:22;11.52;;;7.60;;
64936;SDS011;51452;47.698;19.050;2022-09-24T08:33:50;16.77;;;7.85;;
64936;SDS011;51452;47.698;19.050;2022-09-24T08:36:19;14.02;;;8.15;;
64936;SDS011;51452;47.698;19.050;2022-09-24T08:38:44;14.38;;;8.65;;
64936;SDS011;51452;47.698;19.050;2022-09-24T08:46:33;14.50;;;8.27;;
64936;SDS011;51452;47.698;19.050;2022-09-24T08:49:26;12.38;;;7.95;;
64936;SDS011;51452;47.698;19.050;2022-09-24T08:54:44;12.88;;;8.25;;
64936;SDS011;51452;47.698;19.050;2022-09-24T08:57:12;16.10;;;8.52;;
64936;SDS011;51452;47.698;19.050;2022-09-24T08:59:40;16.80;;;8.75;;
64936;SDS011;51452;47.698;19.050;2022-09-24T09:05:22;11.50;;;7.93;;
64936;SDS011;51452;47.698;19.050;2022-09-24T09:08:00;14.98;;;8.18;;
64936;SDS011;51452;47.698;19.050;2022-09-24T09:10:34;15.63;;;8.68;;
64936;SDS011;51452;47.698;19.050;2022-09-24T09:16:26;14.00;;;7.97;;
64936;SDS011;51452;47.698;19.050;2022-09-24T09:18:59;11.65;;;6.95;;
64936;SDS011;51452;47.698;19.050;2022-09-24T09:21:35;9.50;;;6.18;;
64936;SDS011;51452;47.698;19.050;2022-09-24T09:24:17;10.07;;;5.85;;
64936;SDS011;51452;47.698;19.050;2022-09-24T09:26:49;12.57;;;5.70;;
64936;SDS011;51452;47.698;19.050;2022-09-24T09:29:21;9.65;;;6.25;;
64936;SDS011;51452;47.698;19.050;2022-09-24T09:37:26;11.18;;;5.88;;
64936;SDS011;51452;47.698;19.050;2022-09-24T09:40:03;10.52;;;6.72;;
64936;SDS011;51452;47.698;19.050;2022-09-24T09:42:35;10.02;;;6.50;;
64936;SDS011;51452;47.698;19.050;2022-09-24T09:47:56;10.35;;;6.22;;
64936;SDS011;51452;47.698;19.050;2022-09-24T09:50:35;13.30;;;7.07;;
64936;SDS011;51452;47.698;19.050;2022-09-24T09:53:02;13.25;;;7.28;;
64936;SDS011;51452;47.698;19.050;2022-09-24T09:55:30;13.93;;;6.65;;
64936;SDS011;51452;47.698;19.050;2022-09-24T09:58:32;12.07;;;7.57;;
64936;SDS011;51452;47.698;19.050;2022-09-24T10:01:29;12.68;;;6.78;;
64936;SDS011;51452;47.698;19.050;2022-09-24T10:03:55;12.95;;;6.07;;
64936;SDS011;51452;47.698;19.050;2022-09-24T10:06:26;10.45;;;6.05;;
64936;SDS011;51452;47.698;19.050;2022-09-24T10:08:53;9.57;;;5.65;;
64936;SDS011;51452;47.698;19.050;2022-09-24T10:11:29;10.23;;;5.70;;
64936;SDS011;51452;47.698;19.050;2022-09-24T10:14:04;8.60;;;5.28;;
64936;SDS011;51452;47.698;19.050;2022-09-24T10:16:40;9.25;;;5.55;;
64936;SDS011;51452;47.698;19.050;2022-09-24T10:19:14;9.38;;;5.68;;
64936;SDS011;51452;47.698;19.050;2022-09-24T10:21:44;9.52;;;5.15;;
64936;SDS011;51452;47.698;19.050;2022-09-24T10:24:14;11.07;;;4.97;;
64936;SDS011;51452;47.698;19.050;2022-09-24T10:26:44;9.45;;;5.07;;
64936;SDS011;51452;47.698;19.050;2022-09-24T10:29:31;7.03;;;4.13;;
64936;SDS011;51452;47.698;19.050;2022-09-24T10:32:16;8.27;;;4.30;;
64936;SDS011;51452;47.698;19.050;2022-09-24T10:34:54;8.80;;;4.10;;
64936;SDS011;51452;47.698;19.050;2022-09-24T10:37:24;5.90;;;3.63;;
64936;SDS011;51452;47.698;19.050;2022-09-24T10:40:00;5.72;;;3.65;;
64936;SDS011;51452;47.698;19.050;2022-09-24T10:42:34;5.47;;;3.60;;
64936;SDS011;51452;47.698;19.050;2022-09-24T10:45:01;6.05;;;3.55;;
64936;SDS011;51452;47.698;19.050;2022-09-24T10:50:17;4.03;;;2.40;;
64936;SDS011;51452;47.698;19.050;2022-09-24T10:56:00;3.13;;;2.17;;
64936;SDS011;51452;47.698;19.050;2022-09-24T11:06:34;3.35;;;2.08;;
64936;SDS011;51452;47.698;19.050;2022-09-24T11:09:33;4.68;;;1.73;;
64936;SDS011;51452;47.698;19.050;2022-09-24T11:12:14;7.13;;;2.33;;
64936;SDS011;51452;47.698;19.050;2022-09-24T11:19:55;3.40;;;1.90;;
64936;SDS011;51452;47.698;19.050;2022-09-24T11:28:21;3.40;;;2.28;;
64936;SDS011;51452;47.698;19.050;2022-09-24T11:33:34;6.72;;;1.98;;
64936;SDS011;51452;47.698;19.050;2022-09-24T11:39:46;5.03;;;1.60;;
64936;SDS011;51452;47.698;19.050;2022-09-24T11:43:18;2.47;;;1.48;;
64936;SDS011;51452;47.698;19.050;2022-09-24T11:45:45;2.88;;;1.75;;
64936;SDS011;51452;47.698;19.050;2022-09-24T11:53:57;3.60;;;1.73;;
64936;SDS011;51452;47.698;19.050;2022-09-24T11:56:37;2.97;;;1.58;;
64936;SDS011;51452;47.698;19.050;2022-09-24T12:01:50;2.53;;;1.60;;
64936;SDS011;51452;47.698;19.050;2022-09-24T12:04:23;3.90;;;1.63;;
64936;SDS011;51452;47.698;19.050;2022-09-24T12:06:57;3.72;;;1.80;;
64936;SDS011;51452;47.698;19.050;2022-09-24T12:12:06;2.25;;;1.40;;
64936;SDS011;51452;47.698;19.050;2022-09-24T12:14:50;4.15;;;1.60;;
64936;SDS011;51452;47.698;19.050;2022-09-24T12:17:35;2.58;;;1.70;;
64936;SDS011;51452;47.698;19.050;2022-09-24T12:20:17;2.65;;;1.23;;
64936;SDS011;51452;47.698;19.050;2022-09-24T12:22:47;2.47;;;1.60;;
64936;SDS011;51452;47.698;19.050;2022-09-24T12:25:19;4.10;;;1.88;;
64936;SDS011;51452;47.698;19.050;2022-09-24T12:27:45;2.60;;;1.50;;
64936;SDS011;51452;47.698;19.050;2022-09-24T12:35:44;3.15;;;1.65;;
64936;SDS011;51452;47.698;19.050;2022-09-24T12:46:41;2.80;;;1.67;;
64936;SDS011;51452;47.698;19.050;2022-09-24T12:51:51;4.63;;;1.85;;
64936;SDS011;51452;47.698;19.050;2022-09-24T12:59:56;3.22;;;1.60;;
64936;SDS011;51452;47.698;19.050;2022-09-24T13:02:23;2.33;;;1.55;;
64936;SDS011;51452;47.698;19.050;2022-09-24T13:07:37;4.97;;;1.80;;
64936;SDS011;51452;47.698;19.050;2022-09-24T13:10:19;3.45;;;1.70;;
64936;SDS011;51452;47.698;19.050;2022-09-24T13:12:47;4.82;;;1.90;;
64936;SDS011;51452;47.698;19.050;2022-09-24T13:15:20;2.42;;;1.52;;
64936;SDS011;51452;47.698;19.050;2022-09-24T13:17:59;4.25;;;1.70;;
64936;SDS011;51452;47.698;19.050;2022-09-24T13:20:35;2.08;;;1.42;;
64936;SDS011;51452;47.698;19.050;2022-09-24T13:26:44;4.93;;;1.90;;
64936;SDS011;51452;47.698;19.050;2022-09-24T13:28:59;4.18;;;1.90;;
64936;SDS011;51452;47.698;19.050;2022-09-24T13:34:28;5.22;;;1.75;;
64936;SDS011;51452;47.698;19.050;2022-09-24T13:37:42;2.40;;;1.60;;
64936;SDS011;51452;47.698;19.050;2022-09-24T13:45:14;3.78;;;1.65;;
64936;SDS011;51452;47.698;19.050;2022-09-24T13:47:43;2.35;;;1.70;;
64936;SDS011;51452;47.698;19.050;2022-09-24T13:50:28;1.90;;;1.63;;
64936;SDS011;51452;47.698;19.050;2022-09-24T13:55:31;2.75;;;1.60;;
64936;SDS011;51452;47.698;19.050;2022-09-24T13:57:58;2.28;;;1.42;;
64936;SDS011;51452;47.698;19.050;2022-09-24T14:00:25;2.50;;;1.70;;
64936;SDS011;51452;47.698;19.050;2022-09-24T14:05:23;2.30;;;1.75;;
64936;SDS011;51452;47.698;19.050;2022-09-24T14:08:02;5.70;;;1.83;;
64936;SDS011;51452;47.698;19.050;2022-09-24T14:10:30;3.05;;;1.70;;
64936;SDS011;51452;47.698;19.050;2022-09-24T14:12:59;3.25;;;1.98;;
64936;SDS011;51452;47.698;19.050;2022-09-24T14:15:26;2.78;;;1.73;;
64936;SDS011;51452;47.698;19.050;2022-09-24T14:17:57;5.68;;;1.60;;
64936;SDS011;51452;47.698;19.050;2022-09-24T14:20:24;2.58;;;1.70;;
64936;SDS011;51452;47.698;19.050;2022-09-24T14:22:52;4.95;;;2.10;;
64936;SDS011;51452;47.698;19.050;2022-09-24T14:25:19;2.38;;;1.67;;
64936;SDS011;51452;47.698;19.050;2022-09-24T14:27:51;5.43;;;1.60;;
64936;SDS011;51452;47.698;19.050;2022-09-24T14:30:17;2.60;;;1.50;;
64936;SDS011;51452;47.698;19.050;2022-09-24T14:32:48;2.05;;;1.50;;
64936;SDS011;51452;47.698;19.050;2022-09-24T14:35:19;6.88;;;1.70;;
64936;SDS011;51452;47.698;19.050;2022-09-24T14:37:50;4.00;;;1.60;;
64936;SDS011;51452;47.698;19.050;2022-09-24T14:40:18;1.92;;;1.35;;
64936;SDS011;51452;47.698;19.050;2022-09-24T14:42:46;3.88;;;1.70;;
64936;SDS011;51452;47.698;19.050;2022-09-24T14:45:20;2.88;;;1.75;;
64936;SDS011;51452;47.698;19.050;2022-09-24T14:48:02;2.15;;;1.45;;
64936;SDS011;51452;47.698;19.050;2022-09-24T14:50:48;3.17;;;1.92;;
64936;SDS011;51452;47.698;19.050;2022-09-24T14:53:24;3.83;;;1.52;;
64936;SDS011;51452;47.698;19.050;2022-09-24T14:56:23;5.25;;;1.73;;
64936;SDS011;51452;47.698;19.050;2022-09-24T14:58:53;5.05;;;1.60;;
64936;SDS011;51452;47.698;19.050;2022-09-24T15:01:18;4.07;;;1.48;;
64936;SDS011;51452;47.698;19.050;2022-09-24T15:03:47;10.05;;;2.15;;
64936;SDS011;51452;47.698;19.050;2022-09-24T15:09:36;2.95;;;1.60;;
64936;SDS011;51452;47.698;19.050;2022-09-24T15:12:05;2.97;;;1.75;;
64936;SDS011;51452;47.698;19.050;2022-09-24T15:14:34;2.75;;;1.90;;
64936;SDS011;51452;47.698;19.050;2022-09-24T15:17:08;3.33;;;1.95;;
64936;SDS011;51452;47.698;19.050;2022-09-24T15:19:35;3.92;;;2.05;;
64936;SDS011;51452;47.698;19.050;2022-09-24T15:22:01;3.05;;;1.73;;
64936;SDS011;51452;47.698;19.050;2022-09-24T15:24:26;2.30;;;1.70;;
64936;SDS011;51452;47.698;19.050;2022-09-24T15:27:03;2.80;;;1.70;;
64936;SDS011;51452;47.698;19.050;2022-09-24T15:29:30;3.25;;;1.95;;
64936;SDS011;51452;47.698;19.050;2022-09-24T15:31:56;5.85;;;1.90;;
64936;SDS011;51452;47.698;19.050;2022-09-24T15:34:22;2.80;;;1.90;;
64936;SDS011;51452;47.698;19.050;2022-09-24T15:36:52;4.80;;;1.70;;
64936;SDS011;51452;47.698;19.050;2022-09-24T15:39:20;4.85;;;1.60;;
64936;SDS011;51452;47.698;19.050;2022-09-24T15:41:45;2.95;;;1.67;;
64936;SDS011;51452;47.698;19.050;2022-09-24T15:44:21;3.10;;;1.65;;
64936;SDS011;51452;47.698;19.050;2022-09-24T15:46:48;5.25;;;1.90;;
64936;SDS011;51452;47.698;19.050;2022-09-24T15:49:18;3.42;;;1.90;;
64936;SDS011;51452;47.698;19.050;2022-09-24T15:51:51;4.05;;;1.55;;
64936;SDS011;51452;47.698;19.050;2022-09-24T15:54:19;5.82;;;2.30;;
64936;SDS011;51452;47.698;19.050;2022-09-24T15:56:45;4.38;;;1.90;;
64936;SDS011;51452;47.698;19.050;2022-09-24T15:59:16;3.88;;;1.70;;
64936;SDS011;51452;47.698;19.050;2022-09-24T16:01:43;3.45;;;2.15;;
64936;SDS011;51452;47.698;19.050;2022-09-24T16:04:09;2.65;;;1.83;;
64936;SDS011;51452;47.698;19.050;2022-09-24T16:06:35;4.55;;;2.20;;
64936;SDS011;51452;47.698;19.050;2022-09-24T16:09:00;4.03;;;1.83;;
64936;SDS011;51452;47.698;19.050;2022-09-24T16:11:28;5.60;;;2.75;;
64936;SDS011;51452;47.698;19.050;2022-09-24T16:13:53;4.45;;;2.80;;
64936;SDS011;51452;47.698;19.050;2022-09-24T16:16:19;4.65;;;2.50;;
64936;SDS011;51452;47.698;19.050;2022-09-24T16:18:44;4.28;;;2.42;;
64936;SDS011;51452;47.698;19.050;2022-09-24T16:21:09;5.03;;;2.45;;
64936;SDS011;51452;47.698;19.050;2022-09-24T16:23:35;7.15;;;2.65;;
64936;SDS011;51452;47.698;19.050;2022-09-24T16:26:00;5.75;;;2.20;;
64936;SDS011;51452;47.698;19.050;2022-09-24T16:28:26;7.53;;;2.38;;
64936;SDS011;51452;47.698;19.050;2022-09-24T16:30:53;4.55;;;2.28;;
64936;SDS011;51452;47.698;19.050;2022-09-24T16:33:18;4.13;;;2.17;;
64936;SDS011;51452;47.698;19.050;2022-09-24T16:35:44;7.50;;;2.22;;
64936;SDS011;51452;47.698;19.050;2022-09-24T16:38:09;4.07;;;2.13;;
64936;SDS011;51452;47.698;19.050;2022-09-24T16:40:35;6.63;;;2.50;;
64936;SDS011;51452;47.698;19.050;2022-09-24T16:43:00;6.10;;;2.35;;
64936;SDS011;51452;47.698;19.050;2022-09-24T16:45:26;5.90;;;2.65;;
64936;SDS011;51452;47.698;19.050;2022-09-24T16:47:51;10.10;;;2.45;;
64936;SDS011;51452;47.698;19.050;2022-09-24T16:50:16;6.57;;;2.38;;
64936;SDS011;51452;47.698;19.050;2022-09-24T16:52:44;5.40;;;2.35;;
64936;SDS011;51452;47.698;19.050;2022-09-24T16:55:09;3.92;;;2.30;;
64936;SDS011;51452;47.698;19.050;2022-09-24T16:57:35;3.63;;;2.17;;
64936;SDS011;51452;47.698;19.050;2022-09-24T17:00:03;4.13;;;2.60;;